Time;durP1;ratioP1;P1;durP2;ratioP2;P2;SDS_P1;SDS_P2;PMS_P1;PMS_P2;Temp;Humidity;BMP_temperature;BMP_pressure;BME280_temperature;BME280_humidity;BME280_pressure;Samples;Min_cycle;Max_cycle;Signal;HPM_P1;HPM_P2
2021/12/27 00:00:28;;;;;;;37.85;18.12;;;;;;;-6.66;83.31;101409.00;1629825;87;21400;-79
2021/12/27 00:03:00;;;;;;;40.33;17.95;;;;;;;-6.72;83.29;101413.11;1629988;88;21032;-79
2021/12/27 00:05:27;;;;;;;37.67;17.92;;;;;;;-6.71;83.40;101407.60;1629987;87;21740;-79
2021/12/27 00:07:54;;;;;;;39.53;19.12;;;;;;;-6.72;83.41;101406.70;1630024;86;21205;-81
2021/12/27 00:10:22;;;;;;;35.98;17.87;;;;;;;-6.73;83.38;101410.37;1629837;86;21082;-80
2021/12/27 00:12:49;;;;;;;37.33;17.45;;;;;;;-6.75;83.41;101415.72;1629794;87;21595;-80
2021/12/27 00:15:16;;;;;;;36.60;18.62;;;;;;;-6.80;83.32;101412.66;1629860;86;21604;-80
2021/12/27 00:17:43;;;;;;;38.45;18.67;;;;;;;-6.82;83.29;101418.38;1629714;87;21763;-80
2021/12/27 00:20:14;;;;;;;40.75;18.77;;;;;;;-6.83;83.33;101421.32;1629727;86;21242;-80
2021/12/27 00:22:41;;;;;;;45.98;20.12;;;;;;;-6.87;83.32;101414.97;1629766;87;21255;-80
2021/12/27 00:25:08;;;;;;;40.28;20.12;;;;;;;-6.88;83.33;101418.64;1629829;86;21118;-81
2021/12/27 00:27:34;;;;;;;40.63;20.10;;;;;;;-6.88;83.33;101427.22;1629608;87;21098;-81
2021/12/27 00:30:01;;;;;;;46.60;20.95;;;;;;;-6.91;83.27;101424.33;1629621;88;21664;-80
2021/12/27 00:32:28;;;;;;;40.45;18.90;;;;;;;-6.95;83.14;101429.87;1629693;87;21593;-81
2021/12/27 00:34:54;;;;;;;38.53;18.30;;;;;;;-6.99;83.12;101422.63;1629394;86;21207;-81
2021/12/27 00:37:21;;;;;;;40.65;19.90;;;;;;;-7.00;83.26;101422.11;1629647;87;21090;-78
2021/12/27 00:39:48;;;;;;;37.03;18.70;;;;;;;-7.00;83.28;101424.67;1629490;86;21095;-77
2021/12/27 00:42:15;;;;;;;43.40;19.62;;;;;;;-7.01;83.38;101429.23;1629717;86;22228;-78
2021/12/27 00:44:41;;;;;;;42.10;21.35;;;;;;;-6.98;83.52;101429.58;1629742;86;21098;-80
2021/12/27 00:47:08;;;;;;;51.95;24.18;;;;;;;-6.95;83.60;101431.16;1629729;87;21106;-80
2021/12/27 00:49:35;;;;;;;56.77;26.35;;;;;;;-6.93;83.61;101429.66;1629704;86;21158;-77
2021/12/27 00:52:01;;;;;;;61.83;28.32;;;;;;;-6.90;83.72;101433.83;1629805;86;21109;-80
2021/12/27 00:54:28;;;;;;;55.67;26.10;;;;;;;-6.86;83.79;101433.78;1629731;87;21768;-77
2021/12/27 00:56:55;;;;;;;48.02;23.50;;;;;;;-6.88;83.60;101436.56;1629325;87;21126;-77
2021/12/27 00:59:21;;;;;;;44.10;22.82;;;;;;;-6.93;83.37;101437.72;1629486;86;21114;-78
2021/12/27 01:01:48;;;;;;;53.40;24.75;;;;;;;-6.99;83.18;101437.08;1629478;86;21095;-79
2021/12/27 01:04:15;;;;;;;49.95;23.57;;;;;;;-7.01;83.25;101443.70;1630073;86;21620;-78
2021/12/27 01:06:41;;;;;;;50.88;23.47;;;;;;;-7.02;83.30;101438.92;1630039;87;21857;-78
2021/12/27 01:09:08;;;;;;;46.70;22.93;;;;;;;-7.03;83.36;101440.97;1629768;86;21113;-78
2021/12/27 01:11:57;;;;;;;45.67;22.70;;;;;;;-7.02;83.45;101436.36;1629553;86;21632;-77
2021/12/27 01:14:12;;;;;;;47.70;23.07;;;;;;;-7.00;83.51;101437.81;1629432;87;21102;-77
2021/12/27 01:16:39;;;;;;;50.03;22.65;;;;;;;-7.02;83.41;101437.64;1629276;87;21102;-77
2021/12/27 01:19:06;;;;;;;47.03;23.60;;;;;;;-7.05;83.29;101442.08;1630130;87;21763;-78
2021/12/27 01:21:33;;;;;;;47.60;23.25;;;;;;;-7.09;83.27;101436.11;1629290;86;21102;-78
2021/12/27 01:24:00;;;;;;;49.58;22.50;;;;;;;-7.11;83.19;101436.70;1629482;87;21656;-78
2021/12/27 01:26:28;;;;;;;45.95;22.58;;;;;;;-7.12;83.31;101433.21;1629287;86;21118;-77
2021/12/27 01:28:56;;;;;;;47.15;21.62;;;;;;;-7.10;83.45;101434.28;1629505;86;21829;-78
2021/12/27 01:31:23;;;;;;;49.80;22.60;;;;;;;-7.08;83.56;101434.45;1630006;86;22492;-77
2021/12/27 01:33:50;;;;;;;40.38;21.95;;;;;;;-7.16;83.54;101423.41;1629764;87;21192;-77
2021/12/27 01:36:20;;;;;;;44.13;20.25;;;;;;;-7.11;83.36;101438.88;1629581;86;21117;-78
2021/12/27 01:38:47;;;;;;;43.02;21.10;;;;;;;-7.16;83.23;101442.59;1629127;86;21604;-78
2021/12/27 01:41:16;;;;;;;46.37;21.48;;;;;;;-7.21;83.04;101447.97;1629591;86;21651;-78
2021/12/27 01:43:42;;;;;;;41.83;20.70;;;;;;;-7.30;82.89;101446.25;1629759;86;22581;-78
2021/12/27 01:46:17;;;;;;;38.80;19.52;;;;;;;-7.30;82.98;101449.16;1629534;86;21336;-77
2021/12/27 01:48:54;;;;;;;41.40;21.60;;;;;;;-7.36;82.83;101454.53;1629485;87;21335;-78
2021/12/27 01:51:16;;;;;;;39.27;19.48;;;;;;;-7.41;82.79;101458.27;1630016;87;21579;-78
2021/12/27 01:53:44;;;;;;;44.63;19.73;;;;;;;-7.48;82.66;101460.52;1629489;86;21129;-77
2021/12/27 01:56:11;;;;;;;49.73;21.97;;;;;;;-7.53;82.67;101465.50;1629550;86;21756;-78
2021/12/27 01:58:38;;;;;;;41.33;18.75;;;;;;;-7.54;82.78;101463.70;1629473;86;21600;-77
2021/12/27 02:01:07;;;;;;;40.55;20.17;;;;;;;-7.56;82.77;101460.42;1629515;87;21122;-78
2021/12/27 02:03:34;;;;;;;44.42;21.05;;;;;;;-7.59;82.83;101460.11;1629554;88;21183;-77
2021/12/27 02:06:01;;;;;;;42.83;18.85;;;;;;;-7.54;83.19;101456.03;1629702;88;21548;-78
2021/12/27 02:08:28;;;;;;;43.10;19.07;;;;;;;-7.46;83.28;101460.31;1629753;86;22481;-78
2021/12/27 02:10:55;;;;;;;41.77;18.40;;;;;;;-7.47;83.04;101458.52;1629568;86;21125;-79
2021/12/27 02:13:23;;;;;;;40.05;18.32;;;;;;;-7.42;83.23;101465.39;1629734;86;21139;-79
2021/12/27 02:15:53;;;;;;;40.85;17.77;;;;;;;-7.34;83.42;101467.10;1630063;86;21110;-79
2021/12/27 02:18:20;;;;;;;51.45;22.30;;;;;;;-7.27;83.46;101465.74;1629346;86;21121;-79
2021/12/27 02:20:46;;;;;;;57.70;24.02;;;;;;;-7.18;83.49;101466.22;1629560;87;22010;-80
2021/12/27 02:23:16;;;;;;;65.92;25.77;;;;;;;-7.10;83.59;101465.36;1629585;86;21166;-79
2021/12/27 02:25:48;;;;;;;60.08;23.40;;;;;;;-6.99;83.64;101463.95;1629889;86;21108;-79
2021/12/27 02:28:16;;;;;;;53.35;22.32;;;;;;;-6.90;83.69;101469.66;1631915;86;21587;-79
2021/12/27 02:30:43;;;;;;;58.25;21.55;;;;;;;-6.84;83.57;101463.91;1636780;86;21118;-79
2021/12/27 02:33:10;;;;;;;67.25;22.80;;;;;;;-6.79;83.49;101457.08;1682030;84;21852;-79
2021/12/27 02:35:47;;;;;;;69.30;21.60;;;;;;;-6.71;83.66;101455.86;1681917;84;21574;-79
2021/12/27 02:38:17;;;;;;;50.38;19.50;;;;;;;-6.59;83.89;101455.33;1680913;85;21713;-78
2021/12/27 02:40:44;;;;;;;57.85;19.75;;;;;;;-6.47;84.08;101448.55;1682191;85;21096;-78
2021/12/27 02:43:14;;;;;;;60.75;22.07;;;;;;;-6.34;84.33;101448.55;1682161;83;21115;-78
2021/12/27 02:45:44;;;;;;;69.25;25.17;;;;;;;-6.23;84.34;101451.84;1658312;85;21721;-78
2021/12/27 02:48:11;;;;;;;55.17;21.27;;;;;;;-6.15;84.29;101446.22;1653037;86;21111;-78
2021/12/27 02:50:38;;;;;;;51.88;18.90;;;;;;;-6.04;84.46;101444.38;1653297;85;21162;-78
2021/12/27 02:53:05;;;;;;;43.90;16.87;;;;;;;-5.94;84.50;101439.77;1682699;84;21175;-78
2021/12/27 02:55:32;;;;;;;44.70;16.55;;;;;;;-5.85;84.61;101444.55;1682366;84;21053;-78
2021/12/27 02:57:59;;;;;;;45.52;17.87;;;;;;;-5.77;84.72;101437.24;1658565;85;21724;-78
2021/12/27 03:00:39;;;;;;;43.00;16.57;;;;;;;-5.71;84.70;101442.98;1630155;86;21091;-78
2021/12/27 03:03:05;;;;;;;45.05;16.97;;;;;;;-5.63;84.77;101440.29;1624015;86;21153;-78
2021/12/27 03:05:32;;;;;;;49.85;21.65;;;;;;;-5.55;84.86;101430.05;1653113;85;21500;-79
2021/12/27 03:07:59;;;;;;;50.50;18.65;;;;;;;-5.48;84.90;101432.83;1653058;86;21071;-79
2021/12/27 03:10:29;;;;;;;45.52;17.02;;;;;;;-5.45;84.78;101430.58;1653295;86;21774;-79
2021/12/27 03:12:57;;;;;;;50.40;17.70;;;;;;;-5.35;85.01;101429.48;1652815;86;21476;-79
2021/12/27 03:15:24;;;;;;;47.27;18.05;;;;;;;-5.30;85.04;101435.95;1653258;86;21058;-79
2021/12/27 03:17:52;;;;;;;40.78;17.62;;;;;;;-5.24;84.99;101436.93;1653312;85;21548;-79
2021/12/27 03:20:22;;;;;;;46.42;17.07;;;;;;;-5.20;84.97;101431.38;1653261;86;21589;-79
2021/12/27 03:22:49;;;;;;;38.53;16.70;;;;;;;-5.13;85.13;101434.14;1653380;85;22627;-79
2021/12/27 03:25:19;;;;;;;41.98;16.48;;;;;;;-5.08;85.11;101435.12;1653262;85;21620;-78
2021/12/27 03:27:46;;;;;;;41.95;15.68;;;;;;;-5.00;85.24;101426.88;1653258;85;21460;-79
2021/12/27 03:30:24;;;;;;;37.17;15.63;;;;;;;-4.96;85.22;101427.70;1653055;85;21103;-79
2021/12/27 03:32:51;;;;;;;40.70;16.85;;;;;;;-4.93;85.19;101433.54;1653069;86;21666;-78
2021/12/27 03:35:25;;;;;;;36.80;15.75;;;;;;;-4.87;85.25;101431.56;1652955;86;21776;-78
2021/12/27 03:37:50;;;;;;;44.05;17.20;;;;;;;-4.80;85.33;101434.36;1651771;85;21094;-79
2021/12/27 03:40:17;;;;;;;40.52;16.37;;;;;;;-4.76;85.33;101435.17;1653171;85;21111;-79
2021/12/27 03:42:49;;;;;;;49.15;17.90;;;;;;;-4.71;85.25;101435.22;1653094;86;21200;-79
2021/12/27 03:45:13;;;;;;;41.15;16.77;;;;;;;-4.69;85.17;101436.30;1652639;85;21098;-79
2021/12/27 03:47:39;;;;;;;44.27;17.62;;;;;;;-4.63;85.24;101439.84;1653121;86;21764;-79
2021/12/27 03:50:06;;;;;;;36.55;16.23;;;;;;;-4.62;85.10;101439.96;1653208;86;21075;-78
2021/12/27 03:52:33;;;;;;;39.42;15.78;;;;;;;-4.56;85.30;101431.58;1653129;86;21702;-79
2021/12/27 03:54:59;;;;;;;39.20;16.48;;;;;;;-4.49;85.30;101430.48;1652960;85;21180;-79
2021/12/27 03:57:26;;;;;;;38.73;16.10;;;;;;;-4.45;85.30;101427.84;1653014;86;21078;-78
2021/12/27 04:00:15;;;;;;;40.35;17.00;;;;;;;-4.40;85.30;101435.22;1653057;85;21766;-79
2021/12/27 04:02:21;;;;;;;38.92;15.70;;;;;;;-4.39;85.14;101429.34;1648639;86;21184;-77
2021/12/27 04:04:48;;;;;;;42.08;15.03;;;;;;;-4.36;85.11;101428.33;1652980;86;21071;-79
2021/12/27 04:07:15;;;;;;;38.67;16.15;;;;;;;-4.27;85.35;101418.41;1652940;85;21098;-79
2021/12/27 04:09:41;;;;;;;39.35;16.90;;;;;;;-4.21;85.38;101421.16;1653027;85;21170;-78
2021/12/27 04:12:09;;;;;;;40.20;16.65;;;;;;;-4.16;85.30;101419.94;1653016;85;22455;-78
2021/12/27 04:14:35;;;;;;;41.13;16.90;;;;;;;-4.13;85.23;101420.59;1653045;86;21140;-78
2021/12/27 04:17:02;;;;;;;44.48;16.57;;;;;;;-4.10;85.15;101424.36;1653183;86;21497;-78
2021/12/27 04:19:31;;;;;;;43.45;17.20;;;;;;;-4.10;84.92;101427.33;1653115;85;21372;-78
2021/12/27 04:21:57;;;;;;;44.73;17.50;;;;;;;-4.12;84.83;101426.28;1653014;85;21094;-78
2021/12/27 04:24:24;;;;;;;42.27;16.73;;;;;;;-4.14;84.71;101427.80;1653047;86;22632;-78
2021/12/27 04:26:51;;;;;;;40.23;16.77;;;;;;;-4.15;84.72;101428.19;1652873;85;21182;-78
2021/12/27 04:29:17;;;;;;;88.50;37.08;;;;;;;-4.16;84.63;101430.23;1643880;86;21026;-77
2021/12/27 04:31:44;;;;;;;38.48;17.35;;;;;;;-4.13;84.80;101441.16;1634951;86;22439;-78
2021/12/27 04:34:11;;;;;;;39.83;17.45;;;;;;;-4.15;84.79;101441.05;1635086;86;21065;-78
2021/12/27 04:36:38;;;;;;;46.50;19.00;;;;;;;-4.12;84.85;101438.74;1634929;86;21837;-77
2021/12/27 04:39:04;;;;;;;40.30;16.70;;;;;;;-4.13;84.79;101440.81;1634999;86;21555;-78
2021/12/27 04:41:31;;;;;;;39.15;15.58;;;;;;;-4.12;84.83;101445.17;1634625;86;21687;-78
2021/12/27 04:43:59;;;;;;;39.03;14.43;;;;;;;-4.12;84.73;101446.45;1634433;86;39948;-78
2021/12/27 04:46:26;;;;;;;44.90;17.65;;;;;;;-4.14;84.60;101443.23;1634720;86;21539;-79
2021/12/27 04:48:52;;;;;;;35.00;15.35;;;;;;;-4.14;84.79;101437.70;1634804;86;21782;-78
2021/12/27 04:51:20;;;;;;;40.95;16.05;;;;;;;-4.11;84.75;101440.92;1635034;86;21097;-78
2021/12/27 04:53:49;;;;;;;49.08;18.10;;;;;;;-4.08;84.84;101442.91;1635028;86;21643;-78
2021/12/27 04:56:15;;;;;;;43.13;15.45;;;;;;;-4.06;85.00;101435.84;1635270;87;21145;-78
2021/12/27 04:58:44;;;;;;;30.72;14.23;;;;;;;-4.07;84.76;101434.41;1635037;87;22264;-79
2021/12/27 05:01:11;;;;;;;26.85;14.28;;;;;;;-4.08;84.75;101428.38;1635103;86;21711;-78
2021/12/27 05:03:38;;;;;;;21.93;12.13;;;;;;;-4.04;84.85;101427.00;1634652;86;21282;-78
2021/12/27 05:06:05;;;;;;;27.50;13.25;;;;;;;-3.99;85.08;101425.38;1634873;87;21039;-77
2021/12/27 05:08:31;;;;;;;29.07;13.98;;;;;;;-3.96;85.13;101428.25;1634715;86;21081;-78
2021/12/27 05:10:58;;;;;;;19.20;11.45;;;;;;;-3.92;85.10;101423.02;1634849;86;21102;-78
2021/12/27 05:13:24;;;;;;;19.62;10.70;;;;;;;-3.90;85.07;101429.20;1634806;86;21773;-79
2021/12/27 05:15:51;;;;;;;19.50;11.33;;;;;;;-3.91;85.01;101429.56;1634771;86;21050;-77
2021/12/27 05:18:17;;;;;;;23.40;12.63;;;;;;;-3.89;85.04;101427.53;1634785;86;21582;-78
2021/12/27 05:20:45;;;;;;;24.57;12.85;;;;;;;-3.88;85.00;101431.53;1634687;86;21097;-79
2021/12/27 05:23:12;;;;;;;22.25;12.25;;;;;;;-3.91;84.84;101434.70;1593985;87;21120;-79
2021/12/27 05:25:38;;;;;;;18.48;10.78;;;;;;;-3.91;84.86;101441.13;1634867;87;21774;-79
2021/12/27 05:28:05;;;;;;;18.85;10.15;;;;;;;-3.93;84.81;101441.38;1634985;87;21073;-79
2021/12/27 05:30:31;;;;;;;16.45;9.88;;;;;;;-3.94;84.73;101442.55;1650275;84;21094;-80
2021/12/27 05:32:58;;;;;;;16.60;9.53;;;;;;;-3.95;84.78;101448.05;1653148;85;21645;-80
2021/12/27 05:35:25;;;;;;;18.15;10.03;;;;;;;-3.97;84.69;101446.10;1653174;86;21155;-80
2021/12/27 05:37:51;;;;;;;21.05;10.78;;;;;;;-3.98;84.72;101450.35;1653001;86;22185;-79
2021/12/27 05:40:20;;;;;;;22.80;12.35;;;;;;;-3.99;84.70;101447.63;1653261;85;21074;-79
2021/12/27 05:42:46;;;;;;;29.82;14.90;;;;;;;-4.01;84.61;101439.77;1653452;85;21569;-79
2021/12/27 05:45:13;;;;;;;29.75;15.15;;;;;;;-4.04;84.43;101443.71;1653161;85;21094;-80
2021/12/27 05:47:40;;;;;;;30.50;15.70;;;;;;;-4.10;84.29;101446.22;1652490;86;21173;-79
2021/12/27 05:50:07;;;;;;;28.47;13.25;;;;;;;-4.12;84.25;101445.56;1653025;85;21768;-78
2021/12/27 05:52:34;;;;;;;29.77;14.63;;;;;;;-4.17;84.19;101432.64;1653002;85;21604;-78
2021/12/27 05:55:00;;;;;;;24.98;12.53;;;;;;;-4.21;84.11;101428.88;1652911;85;21143;-77
2021/12/27 05:57:27;;;;;;;30.45;14.87;;;;;;;-4.21;84.20;101430.55;1652672;85;21159;-79
2021/12/27 05:59:54;;;;;;;40.80;17.95;;;;;;;-4.21;84.21;101438.27;1652956;85;21737;-77
2021/12/27 06:02:20;;;;;;;42.45;18.42;;;;;;;-4.21;84.08;101442.12;1652611;85;21770;-80
2021/12/27 06:04:47;;;;;;;32.13;15.10;;;;;;;-4.25;83.95;101442.20;1652576;85;21110;-77
2021/12/27 06:07:13;;;;;;;27.65;12.88;;;;;;;-4.29;83.87;101438.83;1652703;86;21968;-79
2021/12/27 06:09:40;;;;;;;34.00;19.60;;;;;;;-4.34;83.79;101437.08;1652603;86;21122;-78
2021/12/27 06:12:07;;;;;;;44.98;24.32;;;;;;;-4.35;83.78;101439.14;1652867;85;21090;-77
2021/12/27 06:14:38;;;;;;;35.63;19.30;;;;;;;-4.39;83.66;101437.41;1652502;85;21827;-77
2021/12/27 06:17:04;;;;;;;39.53;21.00;;;;;;;-4.43;83.52;101441.73;1652879;86;21665;-81
2021/12/27 06:19:31;;;;;;;36.03;19.90;;;;;;;-4.47;83.44;101441.81;1652876;86;21094;-80
2021/12/27 06:21:58;;;;;;;42.13;21.85;;;;;;;-4.53;83.28;101441.23;1652852;85;21098;-83
2021/12/27 06:24:24;;;;;;;31.00;14.85;;;;;;;-4.58;83.18;101440.81;1653253;85;21607;-83
2021/12/27 06:26:51;;;;;;;24.45;14.03;;;;;;;-4.67;83.01;101450.20;1653259;85;21769;-78
2021/12/27 06:29:17;;;;;;;31.97;16.97;;;;;;;-4.75;83.05;101451.09;1656841;85;21108;-77
2021/12/27 06:31:44;;;;;;;29.23;15.98;;;;;;;-4.78;83.19;101456.85;1677254;85;21085;-77
2021/12/27 06:34:11;;;;;;;35.70;17.35;;;;;;;-4.80;83.18;101462.61;1687499;83;21200;-77
2021/12/27 06:36:37;;;;;;;32.30;16.20;;;;;;;-4.83;83.18;101467.43;1687776;84;21083;-79
2021/12/27 06:39:04;;;;;;;35.03;18.42;;;;;;;-4.87;83.03;101475.59;1669619;84;22424;-79
2021/12/27 06:41:31;;;;;;;31.40;16.30;;;;;;;-4.93;83.03;101478.08;1687204;83;21099;-77
2021/12/27 06:43:57;;;;;;;43.98;23.75;;;;;;;-4.94;83.10;101480.50;1677128;84;21106;-77
2021/12/27 06:46:24;;;;;;;49.00;25.62;;;;;;;-5.05;83.16;101461.46;1631087;86;21318;-76
2021/12/27 06:48:51;;;;;;;34.30;18.42;;;;;;;-4.99;82.97;101474.00;1630181;86;21544;-78
2021/12/27 06:51:17;;;;;;;34.27;19.05;;;;;;;-5.05;82.76;101479.81;1630160;87;21784;-77
2021/12/27 06:53:44;;;;;;;38.70;19.20;;;;;;;-5.21;82.43;101473.56;1646936;87;21063;-78
2021/12/27 06:56:11;;;;;;;45.35;25.65;;;;;;;-5.36;82.31;101476.79;1628615;88;21092;-83
2021/12/27 06:58:37;;;;;;;36.75;17.82;;;;;;;-5.46;82.40;101468.55;1647426;87;21117;-80
2021/12/27 07:01:04;;;;;;;41.95;20.45;;;;;;;-5.52;82.47;101466.28;1628417;87;21045;-77
2021/12/27 07:03:31;;;;;;;39.75;19.15;;;;;;;-5.59;82.49;101470.27;1647302;87;21973;-79
2021/12/27 07:05:57;;;;;;;63.58;30.85;;;;;;;-5.65;82.55;101465.77;1628400;87;21673;-78
2021/12/27 07:08:24;;;;;;;52.95;25.57;;;;;;;-5.67;82.70;101464.36;1647556;85;21272;-78
2021/12/27 07:10:51;;;;;;;45.08;22.07;;;;;;;-5.70;82.71;101470.45;1628571;88;21620;-80
2021/12/27 07:13:17;;;;;;;46.73;21.33;;;;;;;-5.73;82.81;101465.39;1647601;85;21078;-77
2021/12/27 07:15:45;;;;;;;43.25;19.80;;;;;;;-5.75;82.79;101472.92;1628557;87;21829;-77
2021/12/27 07:18:13;;;;;;;40.38;19.27;;;;;;;-5.91;82.61;101454.20;1647521;87;21091;-83
2021/12/27 07:20:42;;;;;;;39.58;17.82;;;;;;;-5.86;82.67;101465.45;1628560;87;21119;-80
2021/12/27 07:23:09;;;;;;;39.10;17.12;;;;;;;-5.90;82.58;101472.66;1647548;86;21682;-81
2021/12/27 07:25:35;;;;;;;40.70;18.15;;;;;;;-5.91;82.60;101475.59;1628539;88;21096;-80
2021/12/27 07:28:02;;;;;;;43.98;20.25;;;;;;;-5.96;82.53;101479.77;1647376;86;22676;-80
2021/12/27 07:30:29;;;;;;;45.35;19.15;;;;;;;-6.16;82.34;101469.63;1625945;86;21090;-81
2021/12/27 07:32:56;;;;;;;35.10;17.75;;;;;;;-6.13;82.30;101487.00;1609339;89;21699;-80
2021/12/27 07:35:24;;;;;;;50.15;20.40;;;;;;;-6.20;82.18;101487.11;1643922;85;21670;-82
2021/12/27 07:37:51;;;;;;;57.08;26.75;;;;;;;-6.28;82.12;101483.77;1643783;86;21164;-82
2021/12/27 07:40:17;;;;;;;67.05;27.17;;;;;;;-6.32;82.18;101490.61;1643681;86;22415;-80
2021/12/27 07:42:44;;;;;;;61.60;26.62;;;;;;;-6.35;82.23;101500.14;1643566;87;21108;-80
2021/12/27 07:45:11;;;;;;;51.28;21.87;;;;;;;-6.38;82.31;101496.34;1643892;85;21104;-81
2021/12/27 07:47:38;;;;;;;44.00;19.80;;;;;;;-6.38;82.27;101500.19;1642419;84;21079;-80
2021/12/27 07:50:05;;;;;;;35.80;19.48;;;;;;;-6.40;82.23;101505.53;1660545;84;21062;-81
2021/12/27 07:52:52;;;;;;;46.60;23.00;;;;;;;-6.44;82.16;101499.17;1657175;85;21911;-81
2021/12/27 07:55:34;;;;;;;50.43;24.32;;;;;;;-6.48;82.16;101505.63;1647351;85;21109;-82
2021/12/27 07:57:48;;;;;;;46.88;23.32;;;;;;;-6.50;82.17;101510.97;1609289;88;21129;-80
2021/12/27 08:00:15;;;;;;;39.83;21.87;;;;;;;-6.56;82.13;101503.94;1661960;86;21559;-81
2021/12/27 08:02:42;;;;;;;39.00;21.33;;;;;;;-6.59;82.19;101503.59;1661772;85;21641;-79
2021/12/27 08:05:09;;;;;;;43.85;21.93;;;;;;;-6.55;82.34;101507.39;1658361;85;22403;-80
2021/12/27 08:07:35;;;;;;;68.35;31.17;;;;;;;-6.54;82.39;101501.54;1661456;85;21129;-79
2021/12/27 08:10:02;;;;;;;59.40;29.98;;;;;;;-6.54;82.32;101505.38;1658064;86;21074;-79
2021/12/27 08:12:29;;;;;;;57.70;29.30;;;;;;;-6.54;82.27;101505.00;1682585;83;21181;-78
2021/12/27 08:14:56;;;;;;;120.65;51.65;;;;;;;-6.53;82.24;101507.18;1682811;84;21074;-79
2021/12/27 08:17:22;;;;;;;163.90;72.60;;;;;;;-6.54;82.09;101506.66;1682900;84;21728;-80
2021/12/27 08:19:49;;;;;;;141.45;63.13;;;;;;;-6.56;82.03;101503.94;1682629;84;21400;-81
2021/12/27 08:22:16;;;;;;;113.22;52.43;;;;;;;-6.58;81.94;101512.22;1682772;84;21082;-81
2021/12/27 08:24:43;;;;;;;106.05;49.70;;;;;;;-6.66;81.81;101516.53;1682706;84;21147;-77
2021/12/27 08:27:09;;;;;;;106.65;45.08;;;;;;;-6.70;81.92;101513.09;1682614;85;21137;-78
2021/12/27 08:29:37;;;;;;;92.75;39.92;;;;;;;-6.72;81.88;101515.86;1683031;84;21753;-78
2021/12/27 08:32:05;;;;;;;88.62;41.37;;;;;;;-6.73;81.94;101514.97;1695545;83;21630;-78
2021/12/27 08:34:32;;;;;;;89.52;41.58;;;;;;;-6.80;81.72;101520.55;1696182;84;21141;-79
2021/12/27 08:36:59;;;;;;;112.65;47.85;;;;;;;-6.84;81.75;101515.48;1696196;83;21085;-80
2021/12/27 08:39:26;;;;;;;98.07;48.02;;;;;;;-6.87;81.72;101515.14;1696263;84;21141;-80
2021/12/27 08:41:53;;;;;;;136.32;63.30;;;;;;;-6.89;81.62;101517.56;1695998;84;21819;-80
2021/12/27 08:44:20;;;;;;;105.43;51.90;;;;;;;-6.90;81.66;101511.00;1696251;84;21070;-81
2021/12/27 08:46:46;;;;;;;131.40;57.50;;;;;;;-6.89;81.70;101515.36;1696135;84;21190;-81
2021/12/27 08:49:13;;;;;;;173.50;64.35;;;;;;;-6.87;81.74;101515.14;1695958;84;21637;-80
2021/12/27 08:51:40;;;;;;;155.48;62.38;;;;;;;-6.86;81.68;101515.31;1695902;82;21109;-80
2021/12/27 08:54:07;;;;;;;156.65;64.87;;;;;;;-6.88;81.57;101519.75;1695946;84;22282;-79
2021/12/27 08:56:35;;;;;;;146.05;63.52;;;;;;;-6.89;81.56;101525.24;1695805;84;21556;-78
2021/12/27 08:59:02;;;;;;;147.90;65.57;;;;;;;-6.87;81.68;101518.63;1695891;83;22179;-82
2021/12/27 09:01:28;;;;;;;149.50;66.87;;;;;;;-6.83;81.64;101514.75;1696050;84;21632;-79
2021/12/27 09:03:55;;;;;;;185.20;82.65;;;;;;;-6.83;81.44;101510.91;1696313;82;21077;-82
2021/12/27 09:06:22;;;;;;;171.57;78.47;;;;;;;-6.85;81.29;101512.02;1695929;84;22731;-79
2021/12/27 09:08:49;;;;;;;140.97;62.65;;;;;;;-6.88;81.18;101511.69;1695980;84;21065;-81
2021/12/27 09:11:16;;;;;;;130.43;59.35;;;;;;;-6.89;81.13;101516.28;1696126;83;21089;-81
2021/12/27 09:13:43;;;;;;;127.10;61.00;;;;;;;-6.92;81.11;101510.83;1695948;84;21112;-79
2021/12/27 09:16:12;;;;;;;116.85;59.10;;;;;;;-6.94;80.96;101509.77;1696197;82;21540;-79
2021/12/27 09:18:38;;;;;;;124.92;59.00;;;;;;;-6.94;80.96;101515.27;1695857;83;21959;-78
2021/12/27 09:21:05;;;;;;;117.62;55.95;;;;;;;-6.91;81.19;101512.63;1695752;82;21089;-81
2021/12/27 09:23:32;;;;;;;123.67;58.63;;;;;;;-6.90;80.91;101512.28;1695860;82;21121;-81
2021/12/27 09:25:59;;;;;;;130.25;59.30;;;;;;;-6.97;80.56;101513.27;1695787;84;21093;-80
2021/12/27 09:28:25;;;;;;;134.80;59.18;;;;;;;-7.01;80.51;101514.97;1696218;84;21614;-83
2021/12/27 09:30:52;;;;;;;124.62;59.15;;;;;;;-7.07;80.38;101522.89;1697190;83;21699;-77
2021/12/27 09:33:19;;;;;;;123.97;52.80;;;;;;;-7.11;80.42;101516.92;1699073;84;21104;-77
2021/12/27 09:35:46;;;;;;;112.65;52.25;;;;;;;-7.13;80.38;101517.48;1699177;84;21140;-80
2021/12/27 09:38:12;;;;;;;120.17;53.13;;;;;;;-7.17;80.28;101520.11;1699185;84;21096;-78
2021/12/27 09:40:39;;;;;;;129.72;54.75;;;;;;;-7.20;80.29;101517.20;1699437;83;21143;-80
2021/12/27 09:43:06;;;;;;;141.05;57.62;;;;;;;-7.20;80.20;101515.03;1699589;83;21824;-79
2021/12/27 09:45:33;;;;;;;165.82;68.78;;;;;;;-7.24;80.05;101513.41;1699783;82;21099;-81
2021/12/27 09:48:00;;;;;;;139.92;57.98;;;;;;;-7.32;79.86;101518.08;1699825;84;21181;-81
2021/12/27 09:50:33;;;;;;;144.85;56.92;;;;;;;-7.37;79.79;101520.89;1699841;82;21346;-81
2021/12/27 09:53:00;;;;;;;134.70;56.63;;;;;;;-7.37;79.88;101522.16;1699741;84;21604;-79
2021/12/27 09:55:27;;;;;;;134.10;54.83;;;;;;;-7.37;79.81;101517.95;1699726;83;22538;-79
2021/12/27 09:57:54;;;;;;;130.15;58.13;;;;;;;-7.42;79.70;101519.98;1699582;83;21064;-79
2021/12/27 10:00:21;;;;;;;137.18;58.45;;;;;;;-7.52;79.54;101525.23;1699830;83;21088;-81
2021/12/27 10:02:51;;;;;;;141.75;62.08;;;;;;;-7.53;79.66;101524.30;1699180;84;21068;-82
2021/12/27 10:05:21;;;;;;;136.15;61.85;;;;;;;-7.52;79.76;101523.58;1699676;84;21119;-79
2021/12/27 10:07:48;;;;;;;134.82;62.75;;;;;;;-7.54;79.72;101511.00;1698991;83;22547;-80
2021/12/27 10:10:14;;;;;;;163.15;73.78;;;;;;;-7.50;79.62;101514.80;1699683;84;21084;-82
2021/12/27 10:12:41;;;;;;;145.40;64.25;;;;;;;-7.50;79.72;101513.53;1699831;84;21112;-81
2021/12/27 10:15:12;;;;;;;150.00;64.00;;;;;;;-7.50;79.61;101508.03;1699937;84;21092;-82
2021/12/27 10:17:41;;;;;;;152.27;66.70;;;;;;;-7.52;79.53;101512.45;1700043;84;21103;-82
2021/12/27 10:20:17;;;;;;;151.68;65.25;;;;;;;-7.54;79.57;101507.55;1699968;84;21839;-84
2021/12/27 10:22:47;;;;;;;161.18;68.57;;;;;;;-7.52;79.47;101498.39;1699935;83;21076;-80
2021/12/27 10:25:24;;;;;;;179.93;74.25;;;;;;;-7.56;79.29;101493.66;1699809;84;21099;-80
2021/12/27 10:27:56;;;;;;;169.00;70.40;;;;;;;-7.58;79.37;101500.26;1698953;84;21620;-80
2021/12/27 10:30:25;;;;;;;164.70;70.97;;;;;;;-7.59;79.37;101495.52;1683133;85;21541;-78
2021/12/27 10:33:14;;;;;;;156.65;68.45;;;;;;;-7.57;79.47;101496.97;1695763;83;21850;-79
2021/12/27 10:35:45;;;;;;;160.95;68.60;;;;;;;-7.53;79.56;101501.67;1696118;82;21093;-79
2021/12/27 10:38:29;;;;;;;167.30;69.77;;;;;;;-7.49;79.56;101493.24;1696232;84;21066;-78
2021/12/27 10:41:01;;;;;;;178.42;72.12;;;;;;;-7.48;79.51;101487.75;1696331;82;21226;-77
2021/12/27 10:43:47;;;;;;;198.25;83.97;;;;;;;-7.46;79.44;101483.70;1696439;82;21810;-77
2021/12/27 10:46:19;;;;;;;175.12;76.07;;;;;;;-7.46;79.37;101485.88;1696213;84;21752;-77
2021/12/27 10:48:59;;;;;;;169.32;72.58;;;;;;;-7.44;79.27;101484.39;1695952;84;21082;-77
2021/12/27 10:51:29;;;;;;;183.80;78.15;;;;;;;-7.46;79.19;101484.98;1696286;82;21753;-77
2021/12/27 10:54:00;;;;;;;184.05;79.55;;;;;;;-7.44;79.24;101487.33;1696109;84;21172;-77
2021/12/27 10:56:30;;;;;;;173.60;78.47;;;;;;;-7.46;79.17;101487.54;1696233;82;21086;-77
2021/12/27 10:58:59;;;;;;;203.20;84.77;;;;;;;-7.46;79.22;101479.87;1692139;84;21776;-79
2021/12/27 11:01:28;;;;;;;185.35;78.00;;;;;;;-7.47;79.16;101480.25;1696168;82;21078;-79
2021/12/27 11:03:58;;;;;;;184.95;83.27;;;;;;;-7.47;78.99;101481.88;1696292;82;21681;-80
2021/12/27 11:06:27;;;;;;;181.07;80.70;;;;;;;-7.56;78.77;101472.86;1696198;83;21606;-80
2021/12/27 11:08:54;;;;;;;192.53;83.80;;;;;;;-7.57;78.96;101478.70;1696299;82;21391;-80